Darstellungsparameter: Aktuell verwendete Einstellungen:
Skalierung der Graphiken ... ?
xyx+y,   Skalierungsfaktor:      Skalierung: Modus: x, Faktor: 1
Darstellungszeitraum ... ?
Vom - - bis: - -   Zeitraum: 01.12.2004 - 06.12.2004
Min/Max/Avg-Anzeige ... ?
Zeige MMA aktuell
Zeige MMA Monat
Zeige MMA alles
Zeige --A aktuell
Zeige --A Monat
Zeige --A alles
Keine MMA-Anzeige
MMA:
Keine MMA-Graphiken
MMA-Basis: 01.12.2004 - 06.12.2004
Quicknavigation für Darstellung... ?
Tage:      1T, 2T, 3T, 5T -1T -2T -3T -5T +1T +2T +3T +5T
Wochen: 1W, 2W, 3W -1W -2W -3W +1W +2W +3W
Monate: 1M, 3M, 6M -1M -3M -6M +1M +3M +6M
Jahre:    1J, 3J, 5J, 10J -1J -3J -5J -10J +1J +3J +5J +10J
Nutze für die Darstellung ... ?
Originaldaten oder Mittelwerte auf ...
Stundenbasis Tagesbasis Wochenbasis
Monatsbasis Jahresbasis      Datenbasis: Original-Daten
Darstellen als:
Statistik (Auto) Statistik J:M      Darstellung:
Zur Graphik,    zurück zur Übersicht aller Sensoren.
 
Tabellarische Datenbersicht: ?
 
Sensor: Nr:Datum:Temp:Abs-Feuchte:Windchill:Wind:
Aussen-T/F 1 01-12-2004 00:07:03 3.5 C 4.67 g/m*3 3.5 C 0 km/h
2 01-12-2004 00:19:02 3.6 C 4.7 g/m*3 3.6 C 0 km/h
3 01-12-2004 00:31:02 3.6 C 4.7 g/m*3 3.6 C 0 km/h
4 01-12-2004 00:43:02 3.6 C 4.7 g/m*3 3.6 C 0 km/h
5 01-12-2004 00:55:03 3.6 C 4.7 g/m*3 3.6 C 0 km/h
6 01-12-2004 01:07:02 3.6 C 4.7 g/m*3 3.6 C 0 km/h
7 01-12-2004 01:19:03 3.7 C 4.67 g/m*3 3.7 C 0 km/h
8 01-12-2004 01:31:02 3.7 C 4.67 g/m*3 3.7 C 0 km/h
9 01-12-2004 01:43:02 3.6 C 4.7 g/m*3 3.6 C 0 km/h
10 01-12-2004 01:55:03 3.6 C 4.7 g/m*3 3.6 C 0 km/h
11 01-12-2004 02:07:02 3.6 C 4.7 g/m*3 3.6 C 0 km/h
12 01-12-2004 02:19:02 3.7 C 4.74 g/m*3 3.7 C 0 km/h
13 01-12-2004 02:31:03 3.7 C 4.74 g/m*3 3.7 C 0 km/h
14 01-12-2004 02:43:03 3.7 C 4.67 g/m*3 3.7 C 0 km/h
15 01-12-2004 02:56:03 3.7 C 4.61 g/m*3 3.7 C 0 km/h
16 01-12-2004 03:08:03 3.7 C 4.74 g/m*3 3.7 C 0 km/h
17 01-12-2004 03:20:04 3.6 C 4.7 g/m*3 3.6 C 0 km/h
18 01-12-2004 03:32:03 3.6 C 4.7 g/m*3 3.6 C 0 km/h
19 01-12-2004 03:44:03 3.5 C 4.73 g/m*3 3.5 C 0 km/h
20 01-12-2004 03:56:03 3.4 C 4.76 g/m*3 3.4 C 0 km/h
21 01-12-2004 04:08:02 3.3 C 4.79 g/m*3 3.3 C 0 km/h
22 01-12-2004 04:20:02 3.2 C 4.82 g/m*3 3.2 C 0 km/h
23 01-12-2004 04:32:02 3.2 C 4.82 g/m*3 3.2 C 0 km/h
24 01-12-2004 04:44:02 3.2 C 4.88 g/m*3 3.2 C 0 km/h
25 01-12-2004 04:56:02 3.2 C 4.88 g/m*3 3.2 C 0 km/h
Sensor: Nr:Datum:Temp:Abs-Feuchte:Windchill:Wind:
Aussen-T/F 26 01-12-2004 05:08:02 3.2 C 5 g/m*3 3.2 C 0 km/h
27 01-12-2004 05:20:02 3.2 C 5 g/m*3 3.2 C 0 km/h
28 01-12-2004 05:32:02 3.1 C 4.97 g/m*3 3.1 C 0 km/h
29 01-12-2004 05:44:02 3.1 C 4.97 g/m*3 3.1 C 0 km/h
30 01-12-2004 05:56:02 3.1 C 4.97 g/m*3 3.1 C 0 km/h
31 01-12-2004 06:08:01 3.2 C 5 g/m*3 3.2 C 0 km/h
32 01-12-2004 06:20:01 3.2 C 5 g/m*3 3.2 C 0 km/h
33 01-12-2004 06:32:02 3.2 C 5 g/m*3 3.2 C 0 km/h
34 01-12-2004 06:44:02 3.2 C 5 g/m*3 3.2 C 0 km/h
35 01-12-2004 06:56:01 3.2 C 5 g/m*3 3.2 C 0 km/h
36 01-12-2004 07:08:01 3.2 C 5 g/m*3 3.2 C 0 km/h
37 01-12-2004 07:20:01 3.2 C 5 g/m*3 3.2 C 0 km/h
38 01-12-2004 07:32:02 3.2 C 5 g/m*3 3.2 C 0 km/h
39 01-12-2004 07:44:02 3.3 C 5.04 g/m*3 3.3 C 0 km/h
40 01-12-2004 07:56:02 3.3 C 5.04 g/m*3 3.3 C 0 km/h
41 01-12-2004 08:08:02 3.3 C 5.04 g/m*3 3.3 C 0 km/h
42 01-12-2004 08:20:02 3.3 C 5.04 g/m*3 3.3 C 0 km/h
43 01-12-2004 08:32:02 3.3 C 4.97 g/m*3 3.3 C 0 km/h
44 01-12-2004 08:44:03 3.4 C 5.07 g/m*3 3.4 C 0 km/h
45 01-12-2004 08:56:01 3.6 C 5.14 g/m*3 3.6 C 0 km/h
46 01-12-2004 09:08:02 3.8 C 5.14 g/m*3 3.8 C 0 km/h
47 01-12-2004 09:20:02 4 C 5.15 g/m*3 4 C 0 km/h
48 01-12-2004 09:32:01 4.1 C 5.12 g/m*3 4.1 C 0 km/h
49 01-12-2004 09:44:01 4.2 C 5.15 g/m*3 4.2 C 0 km/h
50 01-12-2004 09:56:01 4.1 C 5.12 g/m*3 4.1 C 0 km/h
Sensor: Nr:Datum:Temp:Abs-Feuchte:Windchill:Wind:
Aussen-T/F 51 01-12-2004 10:08:02 4.1 C 5.12 g/m*3 4.1 C 0 km/h
52 01-12-2004 10:20:02 4.2 C 5.15 g/m*3 4.2 C 0 km/h
53 01-12-2004 10:32:01 4.3 C 5.12 g/m*3 4.3 C 0 km/h
54 01-12-2004 10:44:01 4.5 C 5.19 g/m*3 4.5 C 0 km/h
55 01-12-2004 10:56:02 4.5 C 5.13 g/m*3 4.5 C 0 km/h
56 01-12-2004 11:08:02 4.8 C 5.23 g/m*3 4.8 C 0 km/h
57 01-12-2004 11:20:02 4.9 C 5.13 g/m*3 4.9 C 0 km/h
58 01-12-2004 11:32:02 5.2 C 5.16 g/m*3 5.2 C 0 km/h
59 01-12-2004 11:44:02 5.5 C 5.27 g/m*3 5.5 C 0 km/h
60 01-12-2004 11:56:01 5.9 C 5.34 g/m*3 5.9 C 0 km/h
61 01-12-2004 12:08:01 6.2 C 5.37 g/m*3 6.2 C 0 km/h
62 01-12-2004 12:20:02 7 C 5.5 g/m*3 7 C 0 km/h
63 01-12-2004 12:32:01 7.3 C 5.45 g/m*3 7.3 C 0 km/h
64 01-12-2004 12:44:01 7.2 C 5.02 g/m*3 7.2 C 0 km/h
65 01-12-2004 12:56:01 7.1 C 5.07 g/m*3 7.1 C 0 km/h
66 01-12-2004 13:08:02 7 C 5.04 g/m*3 7 C 0 km/h
67 01-12-2004 13:20:02 7.1 C 4.99 g/m*3 7.1 C 0 km/h
68 01-12-2004 13:32:02 7.1 C 5.15 g/m*3 7.1 C 0 km/h
69 01-12-2004 13:44:02 7 C 5.04 g/m*3 7 C 0 km/h
70 01-12-2004 13:56:03 6.9 C 5.08 g/m*3 6.9 C 0 km/h
71 01-12-2004 14:08:03 6.9 C 5 g/m*3 6.9 C 0 km/h
72 01-12-2004 14:20:02 6.9 C 5 g/m*3 6.9 C 0 km/h
73 01-12-2004 14:32:02 6.9 C 5.08 g/m*3 6.9 C 0 km/h
74 01-12-2004 14:44:02 6.7 C 5.01 g/m*3 6.7 C 0 km/h
75 01-12-2004 14:56:02 6.5 C 5.02 g/m*3 6.5 C 0 km/h
Sensor: Nr:Datum:Temp:Abs-Feuchte:Windchill:Wind:
Aussen-T/F 76 01-12-2004 15:08:02 6.4 C 5.14 g/m*3 6.4 C 0 km/h
77 01-12-2004 15:20:02 6.4 C 5.14 g/m*3 6.4 C 0 km/h
78 01-12-2004 15:32:02 6.3 C 5.18 g/m*3 6.3 C 0 km/h
79 01-12-2004 15:44:02 6.2 C 5.15 g/m*3 6.2 C 0 km/h
80 01-12-2004 15:56:02 6.1 C 5.19 g/m*3 6.1 C 0 km/h
81 01-12-2004 16:08:02 6 C 5.3 g/m*3 6 C 0 km/h
82 01-12-2004 16:20:02 6 C 5.23 g/m*3 6 C 0 km/h
83 01-12-2004 16:32:02 5.9 C 5.34 g/m*3 5.9 C 0 km/h
84 01-12-2004 16:44:02 5.7 C 5.27 g/m*3 5.7 C 0 km/h
85 01-12-2004 16:56:01 5.6 C 5.37 g/m*3 5.6 C 0 km/h
86 01-12-2004 17:08:01 5.6 C 5.3 g/m*3 5.6 C 0 km/h
87 01-12-2004 17:20:02 5.6 C 5.37 g/m*3 5.6 C 0 km/h
88 01-12-2004 17:32:02 5.4 C 5.44 g/m*3 5.4 C 0 km/h
89 01-12-2004 17:44:02 5.3 C 5.48 g/m*3 5.3 C 0 km/h
90 01-12-2004 17:56:01 5.1 C 5.47 g/m*3 5.1 C 0 km/h
91 01-12-2004 18:08:02 5.1 C 5.54 g/m*3 5.1 C 0 km/h
92 01-12-2004 18:20:02 5 C 5.57 g/m*3 5 C 0 km/h
93 01-12-2004 18:32:01 5.1 C 5.61 g/m*3 5.1 C 0 km/h
94 01-12-2004 18:44:01 5.1 C 5.61 g/m*3 5.1 C 0 km/h
95 01-12-2004 18:56:02 5.1 C 5.61 g/m*3 5.1 C 0 km/h
96 01-12-2004 19:08:03 5.1 C 5.61 g/m*3 5.1 C 0 km/h
97 01-12-2004 19:20:02 5 C 5.57 g/m*3 5 C 0 km/h
98 01-12-2004 19:32:02 5 C 5.64 g/m*3 5 C 0 km/h
99 01-12-2004 19:44:02 5 C 5.64 g/m*3 5 C 0 km/h
100 01-12-2004 19:56:01 5 C 5.64 g/m*3 5 C 0 km/h
Sensor: Nr:Datum:Temp:Abs-Feuchte:Windchill:Wind:
Aussen-T/F 101 01-12-2004 20:08:01 5 C 5.71 g/m*3 5 C 0 km/h
102 01-12-2004 20:20:01 5 C 5.71 g/m*3 5 C 0 km/h
103 01-12-2004 20:32:02 5 C 5.71 g/m*3 5 C 0 km/h
104 01-12-2004 20:44:02 5 C 5.71 g/m*3 5 C 0 km/h
105 01-12-2004 20:56:02 5 C 5.71 g/m*3 5 C 0 km/h
106 01-12-2004 21:08:03 5 C 5.71 g/m*3 5 C 0 km/h
107 01-12-2004 21:20:03 5.1 C 5.61 g/m*3 5.1 C 0 km/h
108 01-12-2004 21:32:03 5.3 C 5.54 g/m*3 5.3 C 0 km/h
109 01-12-2004 21:44:03 5.4 C 5.37 g/m*3 5.4 C 0 km/h
110 01-12-2004 21:56:02 5.3 C 5.34 g/m*3 5.3 C 0 km/h
111 01-12-2004 22:08:02 5.3 C 5.34 g/m*3 5.3 C 0 km/h
112 01-12-2004 22:20:02 5.2 C 5.3 g/m*3 5.2 C 0 km/h
113 01-12-2004 22:32:02 5.1 C 5.27 g/m*3 5.1 C 0 km/h
114 01-12-2004 22:44:02 5.1 C 5.34 g/m*3 5.1 C 0 km/h
115 01-12-2004 22:56:02 5.1 C 5.34 g/m*3 5.1 C 0 km/h
116 01-12-2004 23:08:03 5.1 C 5.34 g/m*3 5.1 C 0 km/h
117 01-12-2004 23:20:03 5.1 C 5.4 g/m*3 5.1 C 0 km/h
118 01-12-2004 23:32:02 5.1 C 5.4 g/m*3 5.1 C 0 km/h
119 01-12-2004 23:44:02 5 C 5.3 g/m*3 5 C 0 km/h
120 01-12-2004 23:56:02 5 C 5.37 g/m*3 5 C 0 km/h
121 02-12-2004 00:08:02 5 C 5.37 g/m*3 5 C 0 km/h
122 02-12-2004 00:20:02 5.1 C 5.4 g/m*3 5.1 C 0 km/h
123 02-12-2004 00:32:02 5 C 5.37 g/m*3 5 C 0 km/h
124 02-12-2004 00:44:02 5 C 5.37 g/m*3 5 C 0 km/h
125 02-12-2004 00:56:02 5 C 5.37 g/m*3 5 C 0 km/h
Sensor: Nr:Datum:Temp:Abs-Feuchte:Windchill:Wind:
Aussen-T/F 126 02-12-2004 01:08:02 5 C 5.44 g/m*3 5 C 0 km/h
127 02-12-2004 01:20:02 5 C 5.44 g/m*3 5 C 0 km/h
128 02-12-2004 01:32:02 5 C 5.37 g/m*3 5 C 0 km/h
129 02-12-2004 01:44:02 5 C 5.37 g/m*3 5 C 0 km/h
130 02-12-2004 01:56:02 4.9 C 5.47 g/m*3 4.9 C 0 km/h
131 02-12-2004 02:08:02 4.9 C 5.47 g/m*3 4.9 C 0 km/h
132 02-12-2004 02:20:02 4.8 C 5.43 g/m*3 4.8 C 0 km/h
133 02-12-2004 02:32:02 4.8 C 5.43 g/m*3 4.8 C 0 km/h
134 02-12-2004 02:44:02 4.8 C 5.43 g/m*3 4.8 C 0 km/h
135 02-12-2004 02:56:01 4.8 C 5.43 g/m*3 4.8 C 0 km/h
136 02-12-2004 03:08:01 4.8 C 5.5 g/m*3 4.8 C 0 km/h
137 02-12-2004 03:20:01 4.8 C 5.5 g/m*3 4.8 C 0 km/h
138 02-12-2004 03:32:02 4.7 C 5.53 g/m*3 4.7 C 0 km/h
139 02-12-2004 03:44:02 4.7 C 5.53 g/m*3 4.7 C 0 km/h
140 02-12-2004 03:56:02 4.8 C 5.57 g/m*3 4.8 C 0 km/h
141 02-12-2004 04:08:02 4.8 C 5.57 g/m*3 4.8 C 0 km/h
142 02-12-2004 04:20:02 4.8 C 5.57 g/m*3 4.8 C 0 km/h
143 02-12-2004 04:32:01 4.8 C 5.57 g/m*3 4.8 C 0 km/h
144 02-12-2004 04:44:01 4.8 C 5.57 g/m*3 4.8 C 0 km/h
145 02-12-2004 04:56:02 4.7 C 5.53 g/m*3 4.7 C 0 km/h
146 02-12-2004 05:08:01 4.8 C 5.57 g/m*3 4.8 C 0 km/h
147 02-12-2004 05:20:01 4.7 C 5.46 g/m*3 4.7 C 0 km/h
148 02-12-2004 05:32:02 4.7 C 5.4 g/m*3 4.7 C 0 km/h
149 02-12-2004 05:44:02 4.7 C 5.33 g/m*3 4.7 C 0 km/h
150 02-12-2004 05:56:01 4.7 C 5.26 g/m*3 4.7 C 0 km/h
Sensor: Nr:Datum:Temp:Abs-Feuchte:Windchill:Wind:
Aussen-T/F 151 02-12-2004 06:08:01 4.6 C 5.16 g/m*3 4.6 C 0 km/h
152 02-12-2004 06:20:02 4.6 C 5.16 g/m*3 4.6 C 0 km/h
153 02-12-2004 06:32:02 4.6 C 5.16 g/m*3 4.6 C 0 km/h
154 02-12-2004 06:44:02 4.6 C 5.16 g/m*3 4.6 C 0 km/h
155 02-12-2004 06:56:02 4.5 C 5.19 g/m*3 4.5 C 0 km/h
156 02-12-2004 07:08:01 4.5 C 5.19 g/m*3 4.5 C 0 km/h
157 02-12-2004 07:20:01 4.5 C 5.19 g/m*3 4.5 C 0 km/h
158 02-12-2004 07:32:02 4.4 C 5.16 g/m*3 4.4 C 0 km/h
159 02-12-2004 07:44:02 4.4 C 5.16 g/m*3 4.4 C 0 km/h
160 02-12-2004 07:56:01 4.4 C 5.16 g/m*3 4.4 C 0 km/h
161 02-12-2004 08:08:01 4.4 C 5.09 g/m*3 4.4 C 0 km/h
162 02-12-2004 08:20:01 4.4 C 5.09 g/m*3 4.4 C 0 km/h
163 02-12-2004 08:32:02 4.4 C 5.09 g/m*3 4.4 C 0 km/h
164 02-12-2004 08:44:02 4.4 C 5.03 g/m*3 4.4 C 0 km/h
165 02-12-2004 08:56:02 4.4 C 4.96 g/m*3 4.4 C 0 km/h
166 02-12-2004 09:08:02 4.4 C 4.96 g/m*3 4.4 C 0 km/h
167 02-12-2004 09:20:01 4.5 C 5 g/m*3 4.5 C 0 km/h
168 02-12-2004 09:32:01 4.5 C 5 g/m*3 4.5 C 0 km/h
169 02-12-2004 09:44:01 4.6 C 5.03 g/m*3 4.6 C 0 km/h
170 02-12-2004 09:56:01 4.7 C 5.06 g/m*3 4.7 C 0 km/h
171 02-12-2004 10:08:01 4.8 C 5.03 g/m*3 4.8 C 0 km/h
172 02-12-2004 10:20:02 4.8 C 4.83 g/m*3 4.8 C 0 km/h
173 02-12-2004 10:32:02 4.7 C 4.8 g/m*3 4.7 C 0 km/h
174 02-12-2004 10:44:02 4.7 C 4.8 g/m*3 4.7 C 0 km/h
175 02-12-2004 10:56:02 4.8 C 4.83 g/m*3 4.8 C 0 km/h
Sensor: Nr:Datum:Temp:Abs-Feuchte:Windchill:Wind:
Aussen-T/F 176 02-12-2004 11:08:02 4.8 C 4.76 g/m*3 4.8 C 0 km/h
177 02-12-2004 11:20:01 5 C 4.76 g/m*3 5 C 0 km/h
178 02-12-2004 11:32:01 4.9 C 4.59 g/m*3 4.9 C 0 km/h
179 02-12-2004 11:44:01 4.9 C 4.66 g/m*3 4.9 C 0 km/h
180 02-12-2004 11:56:01 5 C 4.42 g/m*3 5 C 0 km/h
181 02-12-2004 12:08:01 5 C 4.42 g/m*3 5 C 0 km/h
182 02-12-2004 12:20:02 5.1 C 4.45 g/m*3 5.1 C 0 km/h
183 02-12-2004 12:32:02 5.1 C 4.45 g/m*3 5.1 C 0 km/h
184 02-12-2004 12:44:02 5.1 C 4.38 g/m*3 5.1 C 0 km/h
185 02-12-2004 12:56:02 5.1 C 4.31 g/m*3 5.1 C 0 km/h
186 02-12-2004 13:08:02 5.2 C 4.41 g/m*3 5.2 C 0 km/h
187 02-12-2004 13:20:02 5.3 C 4.44 g/m*3 5.3 C 0 km/h
188 02-12-2004 13:32:01 5.4 C 4.4 g/m*3 5.4 C 0 km/h
189 02-12-2004 13:44:01 5.6 C 4.45 g/m*3 5.6 C 0 km/h
190 02-12-2004 13:56:01 5.7 C 4.55 g/m*3 5.7 C 0 km/h
191 02-12-2004 14:08:02 5.6 C 4.31 g/m*3 5.6 C 0 km/h
192 02-12-2004 14:20:02 5.5 C 4.21 g/m*3 5.5 C 0 km/h
193 02-12-2004 14:32:01 5.6 C 4.24 g/m*3 5.6 C 0 km/h
194 02-12-2004 14:44:01 5.4 C 4.19 g/m*3 5.4 C 0 km/h
195 02-12-2004 14:56:01 5.4 C 4.26 g/m*3 5.4 C 0 km/h
196 02-12-2004 15:08:01 5.3 C 4.16 g/m*3 5.3 C 0 km/h
197 02-12-2004 15:20:02 5.3 C 4.16 g/m*3 5.3 C 0 km/h
198 02-12-2004 15:32:01 5.2 C 4.2 g/m*3 5.2 C 0 km/h
199 02-12-2004 15:44:01 5.2 C 4.2 g/m*3 5.2 C 0 km/h
200 02-12-2004 15:56:01 5.3 C 4.16 g/m*3 5.3 C 0 km/h
Sensor: Nr:Datum:Temp:Abs-Feuchte:Windchill:Wind:
Aussen-T/F 201 02-12-2004 16:08:01 5.1 C 3.97 g/m*3 5.1 C 0 km/h
202 02-12-2004 16:20:01 4.9 C 4.05 g/m*3 4.9 C 0 km/h
203 02-12-2004 16:32:01 4.8 C 4.02 g/m*3 4.8 C 0 km/h
204 02-12-2004 16:44:01 4.7 C 4 g/m*3 4.7 C 0 km/h
205 02-12-2004 16:56:01 4.6 C 4.1 g/m*3 4.6 C 0 km/h
206 02-12-2004 17:08:01 4.5 C 4.21 g/m*3 4.5 C 0 km/h
207 02-12-2004 17:20:02 4.3 C 4.28 g/m*3 4.3 C 0 km/h
208 02-12-2004 17:32:02 4.3 C 4.28 g/m*3 4.3 C 0 km/h
209 02-12-2004 17:44:02 4.3 C 4.41 g/m*3 4.3 C 0 km/h
210 02-12-2004 17:56:02 3.7 C 4.3 g/m*3 3.7 C 0 km/h
211 02-12-2004 18:08:02 3.3 C 4.19 g/m*3 3.3 C 0 km/h
212 02-12-2004 18:20:03 2.9 C 4.19 g/m*3 2.9 C 0 km/h
213 02-12-2004 18:32:01 2.7 C 4.2 g/m*3 2.7 C 0 km/h
214 02-12-2004 18:44:01 2.5 C 4.14 g/m*3 2.5 C 0 km/h
215 02-12-2004 18:56:01 2.6 C 4.22 g/m*3 2.6 C 0 km/h
216 02-12-2004 19:08:01 2.8 C 4.28 g/m*3 2.8 C 0 km/h
217 02-12-2004 19:20:01 3.1 C 4.31 g/m*3 3.1 C 0 km/h
218 02-12-2004 19:32:01 3.2 C 4.34 g/m*3 3.2 C 0 km/h
219 02-12-2004 19:44:01 3.4 C 4.4 g/m*3 3.4 C 0 km/h
220 02-12-2004 19:56:01 3.3 C 4.31 g/m*3 3.3 C 0 km/h
221 02-12-2004 20:08:02 3.2 C 4.4 g/m*3 3.2 C 0 km/h
222 02-12-2004 20:20:01 2.9 C 4.49 g/m*3 2.9 C 0 km/h
223 02-12-2004 20:32:01 2.8 C 4.63 g/m*3 2.8 C 0 km/h
224 02-12-2004 20:44:01 2.4 C 4.62 g/m*3 2.4 C 0 km/h
225 02-12-2004 20:56:02 2.4 C 4.74 g/m*3 2.4 C 0 km/h
Sensor: Nr:Datum:Temp:Abs-Feuchte:Windchill:Wind:
Aussen-T/F 226 02-12-2004 21:08:02 2.3 C 4.76 g/m*3 2.3 C 0 km/h
227 02-12-2004 21:20:02 2.2 C 4.79 g/m*3 2.2 C 0 km/h
228 02-12-2004 21:32:01 2.3 C 4.88 g/m*3 2.3 C 0 km/h
229 02-12-2004 21:44:01 2.3 C 4.88 g/m*3 2.3 C 0 km/h
230 02-12-2004 21:56:01 2.2 C 4.9 g/m*3 2.2 C 0 km/h
231 02-12-2004 22:08:02 2.4 C 4.97 g/m*3 2.4 C 0 km/h
232 02-12-2004 22:20:02 2.1 C 4.87 g/m*3 2.1 C 0 km/h
233 02-12-2004 22:32:01 2.1 C 4.87 g/m*3 2.1 C 0 km/h
234 02-12-2004 22:44:01 1.8 C 4.82 g/m*3 1.8 C 0 km/h
235 02-12-2004 22:56:01 1.8 C 4.82 g/m*3 1.8 C 0 km/h
236 02-12-2004 23:08:01 1.7 C 4.85 g/m*3 1.7 C 0 km/h
237 02-12-2004 23:20:01 1.9 C 4.91 g/m*3 1.9 C 0 km/h
238 02-12-2004 23:32:01 1.7 C 4.85 g/m*3 1.7 C 0 km/h
239 02-12-2004 23:44:01 1.8 C 4.93 g/m*3 1.8 C 0 km/h
240 02-12-2004 23:56:01 1.9 C 4.97 g/m*3 1.9 C 0 km/h
241 03-12-2004 00:08:01 2 C 4.95 g/m*3 2 C 0 km/h
242 03-12-2004 00:20:02 2 C 4.95 g/m*3 2 C 0 km/h
243 03-12-2004 00:32:01 2.1 C 5.04 g/m*3 2.1 C 0 km/h
244 03-12-2004 00:44:02 2.1 C 5.04 g/m*3 2.1 C 0 km/h
245 03-12-2004 00:56:02 2.1 C 5.04 g/m*3 2.1 C 0 km/h
246 03-12-2004 01:08:02 2.1 C 5.04 g/m*3 2.1 C 0 km/h
247 03-12-2004 01:20:02 2.2 C 5.07 g/m*3 2.2 C 0 km/h
248 03-12-2004 01:32:01 2.2 C 5.07 g/m*3 2.2 C 0 km/h
249 03-12-2004 01:44:01 2.2 C 5.07 g/m*3 2.2 C 0 km/h
250 03-12-2004 01:56:02 2.2 C 5.07 g/m*3 2.2 C 0 km/h
Sensor: Nr:Datum:Temp:Abs-Feuchte:Windchill:Wind:
Aussen-T/F 251 03-12-2004 02:08:01 2.3 C 5.1 g/m*3 2.3 C 0 km/h
252 03-12-2004 02:20:01 2.2 C 5.07 g/m*3 2.2 C 0 km/h
253 03-12-2004 02:32:01 2.2 C 5.07 g/m*3 2.2 C 0 km/h
254 03-12-2004 02:44:02 2.2 C 5.07 g/m*3 2.2 C 0 km/h
255 03-12-2004 02:57:04 2.3 C 5.16 g/m*3 2.3 C 0 km/h
256 03-12-2004 03:09:04 2.3 C 5.16 g/m*3 2.3 C 0 km/h
257 03-12-2004 03:21:05 2.3 C 5.16 g/m*3 2.3 C 0 km/h
258 03-12-2004 03:33:02 2.2 C 5.13 g/m*3 2.2 C 0 km/h
259 03-12-2004 03:45:02 1.6 C 4.87 g/m*3 1.6 C 0 km/h
260 03-12-2004 03:57:02 1.7 C 4.95 g/m*3 1.7 C 0 km/h
261 03-12-2004 04:09:02 1.8 C 5.04 g/m*3 1.8 C 0 km/h
262 03-12-2004 04:21:02 1.8 C 5.04 g/m*3 1.8 C 0 km/h
263 03-12-2004 04:33:01 2.1 C 5.15 g/m*3 2.1 C 0 km/h
264 03-12-2004 04:45:02 2.1 C 5.15 g/m*3 2.1 C 0 km/h
265 03-12-2004 04:57:02 2.1 C 5.15 g/m*3 2.1 C 0 km/h
266 03-12-2004 05:09:01 2.2 C 5.18 g/m*3 2.2 C 0 km/h
267 03-12-2004 05:21:02 2.2 C 5.18 g/m*3 2.2 C 0 km/h
268 03-12-2004 05:33:02 2.3 C 5.27 g/m*3 2.3 C 0 km/h
269 03-12-2004 05:45:02 2.2 C 5.18 g/m*3 2.2 C 0 km/h
270 03-12-2004 05:57:02 2 C 5.11 g/m*3 2 C 0 km/h
271 03-12-2004 06:09:02 1.7 C 5.01 g/m*3 1.7 C 0 km/h
272 03-12-2004 06:21:02 1.8 C 5.1 g/m*3 1.8 C 0 km/h
273 03-12-2004 06:33:02 1.7 C 5.06 g/m*3 1.7 C 0 km/h
274 03-12-2004 06:45:02 1.7 C 5.06 g/m*3 1.7 C 0 km/h
275 03-12-2004 06:57:02 1.8 C 5.1 g/m*3 1.8 C 0 km/h
Sensor: Nr:Datum:Temp:Abs-Feuchte:Windchill:Wind:
Aussen-T/F 276 03-12-2004 07:09:02 1.8 C 5.1 g/m*3 1.8 C 0 km/h
277 03-12-2004 07:21:02 1.7 C 5.06 g/m*3 1.7 C 0 km/h
278 03-12-2004 07:33:01 1.7 C 5.06 g/m*3 1.7 C 0 km/h
279 03-12-2004 07:45:02 1.8 C 5.15 g/m*3 1.8 C 0 km/h
280 03-12-2004 07:57:02 1.8 C 5.15 g/m*3 1.8 C 0 km/h
281 03-12-2004 08:09:02 1.9 C 5.19 g/m*3 1.9 C 0 km/h
282 03-12-2004 08:21:02 2.1 C 5.2 g/m*3 2.1 C 0 km/h
283 03-12-2004 08:33:02 2.1 C 5.2 g/m*3 2.1 C 0 km/h
284 03-12-2004 08:45:02 2.1 C 5.2 g/m*3 2.1 C 0 km/h
285 03-12-2004 08:57:02 2.2 C 5.29 g/m*3 2.2 C 0 km/h
286 03-12-2004 09:09:02 2.3 C 5.33 g/m*3 2.3 C 0 km/h
287 03-12-2004 09:21:02 2.4 C 5.37 g/m*3 2.4 C 0 km/h
288 03-12-2004 09:33:02 2.5 C 5.4 g/m*3 2.5 C 0 km/h
289 03-12-2004 09:45:01 2.6 C 5.44 g/m*3 2.6 C 0 km/h
290 03-12-2004 09:57:01 2.7 C 5.48 g/m*3 2.7 C 0 km/h
291 03-12-2004 10:09:01 3 C 5.59 g/m*3 3 C 0 km/h
292 03-12-2004 10:21:01 3.2 C 5.66 g/m*3 3.2 C 0 km/h
293 03-12-2004 10:33:01 3.2 C 5.6 g/m*3 3.2 C 0 km/h
294 03-12-2004 10:45:02 3.1 C 5.51 g/m*3 3.1 C 0 km/h
295 03-12-2004 10:57:03 3.2 C 5.54 g/m*3 3.2 C 0 km/h
296 03-12-2004 11:09:03 3.2 C 5.48 g/m*3 3.2 C 0 km/h
297 03-12-2004 11:21:02 3.4 C 5.56 g/m*3 3.4 C 0 km/h
298 03-12-2004 11:33:02 3.5 C 5.53 g/m*3 3.5 C 0 km/h
299 03-12-2004 11:45:01 3.5 C 5.53 g/m*3 3.5 C 0 km/h
300 03-12-2004 11:57:01 4 C 5.72 g/m*3 4 C 0 km/h
Sensor: Nr:Datum:Temp:Abs-Feuchte:Windchill:Wind:
Aussen-T/F 301 03-12-2004 12:09:02 4.1 C 5.76 g/m*3 4.1 C 0 km/h
302 03-12-2004 12:21:01 4.1 C 5.7 g/m*3 4.1 C 0 km/h
303 03-12-2004 12:33:02 4.2 C 5.73 g/m*3 4.2 C 0 km/h
304 03-12-2004 12:45:02 4.1 C 5.63 g/m*3 4.1 C 0 km/h
305 03-12-2004 12:57:02 4.1 C 5.63 g/m*3 4.1 C 0 km/h
306 03-12-2004 13:09:02 4.1 C 5.57 g/m*3 4.1 C 0 km/h
307 03-12-2004 13:21:02 4.5 C 5.72 g/m*3 4.5 C 0 km/h
308 03-12-2004 13:33:02 4.7 C 5.8 g/m*3 4.7 C 0 km/h
309 03-12-2004 13:45:01 4.8 C 5.77 g/m*3 4.8 C 0 km/h
310 03-12-2004 13:57:01 4.9 C 5.81 g/m*3 4.9 C 0 km/h
311 03-12-2004 14:09:01 4.7 C 5.6 g/m*3 4.7 C 0 km/h
312 03-12-2004 14:21:01 4.8 C 5.5 g/m*3 4.8 C 0 km/h
313 03-12-2004 14:33:01 4.7 C 5.46 g/m*3 4.7 C 0 km/h
314 03-12-2004 14:45:02 4.8 C 5.5 g/m*3 4.8 C 0 km/h
315 03-12-2004 14:57:02 4.6 C 5.43 g/m*3 4.6 C 0 km/h
316 03-12-2004 15:09:03 4.5 C 5.39 g/m*3 4.5 C 0 km/h
317 03-12-2004 15:21:03 4.4 C 5.22 g/m*3 4.4 C 0 km/h
318 03-12-2004 15:33:02 4.3 C 5.19 g/m*3 4.3 C 0 km/h
319 03-12-2004 15:45:01 4.2 C 5.15 g/m*3 4.2 C 0 km/h
320 03-12-2004 15:57:01 4 C 5.09 g/m*3 4 C 0 km/h
321 03-12-2004 16:09:02 4 C 5.15 g/m*3 4 C 0 km/h
322 03-12-2004 16:21:01 4 C 5.15 g/m*3 4 C 0 km/h
323 03-12-2004 16:33:02 3.9 C 5.24 g/m*3 3.9 C 0 km/h
324 03-12-2004 16:45:02 3.9 C 5.31 g/m*3 3.9 C 0 km/h
325 03-12-2004 16:57:02 3.8 C 5.27 g/m*3 3.8 C 0 km/h
Sensor: Nr:Datum:Temp:Abs-Feuchte:Windchill:Wind:
Aussen-T/F 326 03-12-2004 17:09:02 3.8 C 5.33 g/m*3 3.8 C 0 km/h
327 03-12-2004 17:21:02 3.8 C 5.33 g/m*3 3.8 C 0 km/h
328 03-12-2004 17:33:02 3.8 C 5.4 g/m*3 3.8 C 0 km/h
329 03-12-2004 17:45:03 3.8 C 5.4 g/m*3 3.8 C 0 km/h
330 03-12-2004 17:57:03 3.8 C 5.4 g/m*3 3.8 C 0 km/h
331 03-12-2004 18:09:02 3.7 C 5.36 g/m*3 3.7 C 0 km/h
332 03-12-2004 18:21:02 3.6 C 5.32 g/m*3 3.6 C 0 km/h
333 03-12-2004 18:33:02 3.6 C 5.32 g/m*3 3.6 C 0 km/h
334 03-12-2004 18:45:01 3.6 C 5.32 g/m*3 3.6 C 0 km/h
335 03-12-2004 18:57:01 3.7 C 5.36 g/m*3 3.7 C 0 km/h
336 03-12-2004 19:09:01 3.7 C 5.36 g/m*3 3.7 C 0 km/h
337 03-12-2004 19:21:02 3.7 C 5.36 g/m*3 3.7 C 0 km/h
338 03-12-2004 19:33:02 3.6 C 5.32 g/m*3 3.6 C 0 km/h
339 03-12-2004 19:45:02 3.6 C 5.32 g/m*3 3.6 C 0 km/h
340 03-12-2004 19:57:02 3.6 C 5.32 g/m*3 3.6 C 0 km/h
341 03-12-2004 20:09:02 3.6 C 5.26 g/m*3 3.6 C 0 km/h
342 03-12-2004 20:21:02 3.7 C 5.3 g/m*3 3.7 C 0 km/h
343 03-12-2004 20:33:02 3.6 C 5.2 g/m*3 3.6 C 0 km/h
344 03-12-2004 20:45:02 3.6 C 5.2 g/m*3 3.6 C 0 km/h
345 03-12-2004 20:57:02 3.5 C 5.16 g/m*3 3.5 C 0 km/h
346 03-12-2004 21:09:02 3.6 C 5.2 g/m*3 3.6 C 0 km/h
347 03-12-2004 21:21:02 3.6 C 5.2 g/m*3 3.6 C 0 km/h
348 03-12-2004 21:33:03 3.6 C 5.2 g/m*3 3.6 C 0 km/h
349 03-12-2004 21:45:01 3.6 C 5.2 g/m*3 3.6 C 0 km/h
350 03-12-2004 21:57:01 3.6 C 5.2 g/m*3 3.6 C 0 km/h
Sensor: Nr:Datum:Temp:Abs-Feuchte:Windchill:Wind:
Aussen-T/F 351 03-12-2004 22:09:01 3.6 C 5.26 g/m*3 3.6 C 0 km/h
352 03-12-2004 22:21:01 3.6 C 5.26 g/m*3 3.6 C 0 km/h
353 03-12-2004 22:33:01 3.5 C 5.23 g/m*3 3.5 C 0 km/h
354 03-12-2004 22:45:02 3.6 C 5.2 g/m*3 3.6 C 0 km/h
355 03-12-2004 22:57:02 3.5 C 5.16 g/m*3 3.5 C 0 km/h
356 03-12-2004 23:09:02 3.5 C 5.16 g/m*3 3.5 C 0 km/h
357 03-12-2004 23:21:02 3.5 C 5.16 g/m*3 3.5 C 0 km/h
358 03-12-2004 23:33:02 3.5 C 5.16 g/m*3 3.5 C 0 km/h
359 03-12-2004 23:45:02 3.4 C 5.13 g/m*3 3.4 C 0 km/h
360 03-12-2004 23:57:02 3.4 C 5.13 g/m*3 3.4 C 0 km/h
361 04-12-2004 00:09:01 3.3 C 5.1 g/m*3 3.3 C 0 km/h
362 04-12-2004 00:21:02 3.3 C 5.1 g/m*3 3.3 C 0 km/h
363 04-12-2004 00:33:02 3.2 C 5.06 g/m*3 3.2 C 0 km/h
364 04-12-2004 00:45:03 3.1 C 4.97 g/m*3 3.1 C 0 km/h
365 04-12-2004 00:57:03 3.1 C 5.03 g/m*3 3.1 C 0 km/h
366 04-12-2004 01:09:03 3.1 C 5.03 g/m*3 3.1 C 0 km/h
367 04-12-2004 01:21:02 3.1 C 5.03 g/m*3 3.1 C 0 km/h
368 04-12-2004 01:33:02 3.1 C 5.03 g/m*3 3.1 C 0 km/h
369 04-12-2004 01:45:02 3.1 C 5.03 g/m*3 3.1 C 0 km/h
370 04-12-2004 01:57:02 3.1 C 5.03 g/m*3 3.1 C 0 km/h
371 04-12-2004 02:09:02 3 C 4.99 g/m*3 3 C 0 km/h
372 04-12-2004 02:21:02 3.1 C 5.03 g/m*3 3.1 C 0 km/h
373 04-12-2004 02:33:01 3.1 C 5.03 g/m*3 3.1 C 0 km/h
374 04-12-2004 02:46:04 3 C 4.99 g/m*3 3 C 0 km/h
375 04-12-2004 02:58:04 3 C 4.99 g/m*3 3 C 0 km/h
Sensor: Nr:Datum:Temp:Abs-Feuchte:Windchill:Wind:
Aussen-T/F 376 04-12-2004 03:10:03 3 C 4.99 g/m*3 3 C 0 km/h
377 04-12-2004 03:22:03 3 C 4.99 g/m*3 3 C 0 km/h
378 04-12-2004 03:34:02 2.8 C 4.99 g/m*3 2.8 C 0 km/h
379 04-12-2004 03:46:02 2.8 C 4.99 g/m*3 2.8 C 0 km/h
380 04-12-2004 03:58:02 2.8 C 4.99 g/m*3 2.8 C 0 km/h
381 04-12-2004 04:10:02 2.7 C 4.95 g/m*3 2.7 C 0 km/h
382 04-12-2004 04:22:02 2.7 C 4.95 g/m*3 2.7 C 0 km/h
383 04-12-2004 04:34:01 2.7 C 4.95 g/m*3 2.7 C 0 km/h
384 04-12-2004 04:46:02 2.6 C 4.92 g/m*3 2.6 C 0 km/h
385 04-12-2004 04:58:03 2.6 C 4.98 g/m*3 2.6 C 0 km/h
386 04-12-2004 05:10:02 2.5 C 4.89 g/m*3 2.5 C 0 km/h
387 04-12-2004 05:22:02 2.5 C 4.89 g/m*3 2.5 C 0 km/h
388 04-12-2004 05:34:02 2.5 C 4.94 g/m*3 2.5 C 0 km/h
389 04-12-2004 05:46:03 2.4 C 4.91 g/m*3 2.4 C 0 km/h
390 04-12-2004 05:58:03 2.4 C 4.91 g/m*3 2.4 C 0 km/h
391 04-12-2004 06:10:02 2.2 C 4.84 g/m*3 2.2 C 0 km/h
392 04-12-2004 06:22:03 2.2 C 4.84 g/m*3 2.2 C 0 km/h
393 04-12-2004 06:34:02 2.2 C 4.84 g/m*3 2.2 C 0 km/h
394 04-12-2004 06:46:02 2.1 C 4.81 g/m*3 2.1 C 0 km/h
395 04-12-2004 06:58:02 2 C 4.83 g/m*3 2 C 0 km/h
396 04-12-2004 07:10:01 2 C 4.83 g/m*3 2 C 0 km/h
397 04-12-2004 07:22:01 1.8 C 4.77 g/m*3 1.8 C 0 km/h
398 04-12-2004 07:34:01 1.8 C 4.82 g/m*3 1.8 C 0 km/h
399 04-12-2004 07:46:02 1.7 C 4.74 g/m*3 1.7 C 0 km/h
400 04-12-2004 07:58:02 1.6 C 4.7 g/m*3 1.6 C 0 km/h
Sensor: Nr:Datum:Temp:Abs-Feuchte:Windchill:Wind:
Aussen-T/F 401 04-12-2004 08:10:02 1.6 C 4.65 g/m*3 1.6 C 0 km/h
402 04-12-2004 08:22:02 1.6 C 4.6 g/m*3 1.6 C 0 km/h
403 04-12-2004 08:34:02 1.5 C 4.57 g/m*3 1.5 C 0 km/h
404 04-12-2004 08:46:02 1.5 C 4.57 g/m*3 1.5 C 0 km/h
405 04-12-2004 08:58:02 1.5 C 4.62 g/m*3 1.5 C 0 km/h
406 04-12-2004 09:10:01 1.5 C 4.62 g/m*3 1.5 C 0 km/h
407 04-12-2004 09:22:02 1.6 C 4.6 g/m*3 1.6 C 0 km/h
408 04-12-2004 09:34:02 1.6 C 4.54 g/m*3 1.6 C 0 km/h
409 04-12-2004 09:46:02 1.8 C 4.6 g/m*3 1.8 C 0 km/h
410 04-12-2004 09:58:02 2 C 4.61 g/m*3 2 C 0 km/h
411 04-12-2004 10:10:02 2 C 4.61 g/m*3 2 C 0 km/h
412 04-12-2004 10:22:02 2 C 4.56 g/m*3 2 C 0 km/h
413 04-12-2004 10:34:02 2.2 C 4.62 g/m*3 2.2 C 0 km/h
414 04-12-2004 10:46:02 2.3 C 4.65 g/m*3 2.3 C 0 km/h
415 04-12-2004 10:58:02 2.2 C 4.56 g/m*3 2.2 C 0 km/h
416 04-12-2004 11:10:02 2.1 C 4.53 g/m*3 2.1 C 0 km/h
417 04-12-2004 11:22:02 2.1 C 4.59 g/m*3 2.1 C 0 km/h
418 04-12-2004 11:34:02 2 C 4.56 g/m*3 2 C 0 km/h
419 04-12-2004 11:46:02 2 C 4.56 g/m*3 2 C 0 km/h
420 04-12-2004 11:58:02 2.1 C 4.59 g/m*3 2.1 C 0 km/h
421 04-12-2004 12:10:02 2.1 C 4.53 g/m*3 2.1 C 0 km/h
422 04-12-2004 12:22:03 2.2 C 4.56 g/m*3 2.2 C 0 km/h
423 04-12-2004 12:34:02 2.2 C 4.56 g/m*3 2.2 C 0 km/h
424 04-12-2004 12:46:02 2.3 C 4.59 g/m*3 2.3 C 0 km/h
425 04-12-2004 12:58:02 2.3 C 4.54 g/m*3 2.3 C 0 km/h
Sensor: Nr:Datum:Temp:Abs-Feuchte:Windchill:Wind:
Aussen-T/F 426 04-12-2004 13:10:02 2.5 C 4.6 g/m*3 2.5 C 0 km/h
427 04-12-2004 13:22:01 2.6 C 4.63 g/m*3 2.6 C 0 km/h
428 04-12-2004 13:34:02 2.8 C 4.69 g/m*3 2.8 C 0 km/h
429 04-12-2004 13:46:02 2.8 C 4.58 g/m*3 2.8 C 0 km/h
430 04-12-2004 13:58:02 2.8 C 4.52 g/m*3 2.8 C 0 km/h
431 04-12-2004 14:10:03 2.5 C 4.43 g/m*3 2.5 C 0 km/h
432 04-12-2004 14:22:02 2.5 C 4.48 g/m*3 2.5 C 0 km/h
433 04-12-2004 14:34:02 2.8 C 4.63 g/m*3 2.8 C 0 km/h
434 04-12-2004 14:46:02 3 C 4.64 g/m*3 3 C 0 km/h
435 04-12-2004 14:58:02 2.8 C 4.58 g/m*3 2.8 C 0 km/h
436 04-12-2004 15:10:02 2.7 C 4.49 g/m*3 2.7 C 0 km/h
437 04-12-2004 15:22:02 2.3 C 4.42 g/m*3 2.3 C 0 km/h
438 04-12-2004 15:34:02 2.4 C 4.51 g/m*3 2.4 C 0 km/h
439 04-12-2004 15:46:02 2.3 C 4.48 g/m*3 2.3 C 0 km/h
440 04-12-2004 15:58:02 2.3 C 4.48 g/m*3 2.3 C 0 km/h
441 04-12-2004 16:10:03 2 C 4.39 g/m*3 2 C 0 km/h
442 04-12-2004 16:22:02 2 C 4.39 g/m*3 2 C 0 km/h
443 04-12-2004 16:34:02 1.8 C 4.39 g/m*3 1.8 C 0 km/h
444 04-12-2004 16:46:01 1.8 C 4.39 g/m*3 1.8 C 0 km/h
445 04-12-2004 16:58:01 1.7 C 4.41 g/m*3 1.7 C 0 km/h
446 04-12-2004 17:10:01 1.7 C 4.41 g/m*3 1.7 C 0 km/h
447 04-12-2004 17:22:02 1.7 C 4.41 g/m*3 1.7 C 0 km/h
448 04-12-2004 17:34:01 1.6 C 4.38 g/m*3 1.6 C 0 km/h
449 04-12-2004 17:46:01 1.5 C 4.35 g/m*3 1.5 C 0 km/h
450 04-12-2004 17:58:01 1.3 C 4.29 g/m*3 1.3 C 0 km/h
Sensor: Nr:Datum:Temp:Abs-Feuchte:Windchill:Wind:
Aussen-T/F 451 04-12-2004 18:10:02 1.2 C 4.26 g/m*3 1.2 C 0 km/h
452 04-12-2004 18:22:02 1.2 C 4.31 g/m*3 1.2 C 0 km/h
453 04-12-2004 18:34:01 1.2 C 4.31 g/m*3 1.2 C 0 km/h
454 04-12-2004 18:46:01 1.1 C 4.29 g/m*3 1.1 C 0 km/h
455 04-12-2004 18:58:01 1.2 C 4.31 g/m*3 1.2 C 0 km/h
456 04-12-2004 19:10:01 1.2 C 4.31 g/m*3 1.2 C 0 km/h
457 04-12-2004 19:22:02 1.1 C 4.29 g/m*3 1.1 C 0 km/h
458 04-12-2004 19:34:02 1.2 C 4.31 g/m*3 1.2 C 0 km/h
459 04-12-2004 19:46:02 1.2 C 4.31 g/m*3 1.2 C 0 km/h
460 04-12-2004 19:58:02 1.2 C 4.31 g/m*3 1.2 C 0 km/h
461 04-12-2004 20:10:02 1.1 C 4.29 g/m*3 1.1 C 0 km/h
462 04-12-2004 20:22:02 1.1 C 4.29 g/m*3 1.1 C 0 km/h
463 04-12-2004 20:34:02 1.1 C 4.29 g/m*3 1.1 C 0 km/h
464 04-12-2004 20:46:01 1.1 C 4.29 g/m*3 1.1 C 0 km/h
465 04-12-2004 20:58:01 1.1 C 4.29 g/m*3 1.1 C 0 km/h
466 04-12-2004 21:10:02 1 C 4.26 g/m*3 1 C 0 km/h
467 04-12-2004 21:22:02 0.8 C 4.25 g/m*3 0.8 C 0 km/h
468 04-12-2004 21:34:01 0.7 C 4.22 g/m*3 0.7 C 0 km/h
469 04-12-2004 21:46:01 0.8 C 4.25 g/m*3 0.8 C 0 km/h
470 04-12-2004 21:58:01 0.9 C 4.28 g/m*3 0.9 C 0 km/h
471 04-12-2004 22:10:02 0.8 C 4.25 g/m*3 0.8 C 0 km/h
472 04-12-2004 22:22:02 0.9 C 4.28 g/m*3 0.9 C 0 km/h
473 04-12-2004 22:34:01 0.8 C 4.25 g/m*3 0.8 C 0 km/h
474 04-12-2004 22:46:01 0.7 C 4.22 g/m*3 0.7 C 0 km/h
475 04-12-2004 22:58:01 0.7 C 4.22 g/m*3 0.7 C 0 km/h
Sensor: Nr:Datum:Temp:Abs-Feuchte:Windchill:Wind:
Aussen-T/F 476 04-12-2004 23:10:02 0.7 C 4.22 g/m*3 0.7 C 0 km/h
477 04-12-2004 23:22:01 0.7 C 4.22 g/m*3 0.7 C 0 km/h
478 04-12-2004 23:34:02 0.7 C 4.22 g/m*3 0.7 C 0 km/h
479 04-12-2004 23:46:01 0.7 C 4.22 g/m*3 0.7 C 0 km/h
480 04-12-2004 23:58:01 0.6 C 4.19 g/m*3 0.6 C 0 km/h
481 05-12-2004 00:10:02 0.6 C 4.24 g/m*3 0.6 C 0 km/h
482 05-12-2004 00:22:02 0.6 C 4.24 g/m*3 0.6 C 0 km/h
483 05-12-2004 00:34:02 0.7 C 4.27 g/m*3 0.7 C 0 km/h
484 05-12-2004 00:46:01 0.6 C 4.24 g/m*3 0.6 C 0 km/h
485 05-12-2004 00:58:01 0.4 C 4.13 g/m*3 0.4 C 0 km/h
486 05-12-2004 01:10:02 0.3 C 4.11 g/m*3 0.3 C 0 km/h
487 05-12-2004 01:22:02 0.3 C 4.11 g/m*3 0.3 C 0 km/h
488 05-12-2004 01:34:02 0.2 C 4.08 g/m*3 0.2 C 0 km/h
489 05-12-2004 01:46:02 0.1 C 4.05 g/m*3 0.1 C 0 km/h
490 05-12-2004 01:58:02 0.1 C 4.05 g/m*3 0.1 C 0 km/h
491 05-12-2004 02:10:02 0.3 C 4.16 g/m*3 0.3 C 0 km/h
492 05-12-2004 02:22:03 0.3 C 4.16 g/m*3 0.3 C 0 km/h
493 05-12-2004 02:34:02 0.4 C 4.18 g/m*3 0.4 C 0 km/h
494 05-12-2004 02:47:03 0.5 C 4.21 g/m*3 0.5 C 0 km/h
495 05-12-2004 02:59:03 0.3 C 4.11 g/m*3 0.3 C 0 km/h
496 05-12-2004 03:11:03 0.2 C 4.08 g/m*3 0.2 C 0 km/h
497 05-12-2004 03:23:03 0.1 C 4.05 g/m*3 0.1 C 0 km/h
498 05-12-2004 03:35:01 0 C 3.97 g/m*3 0 C 0 km/h
499 05-12-2004 03:47:01 0.1 C 4.05 g/m*3 0.1 C 0 km/h
500 05-12-2004 03:59:01 0 C 4.02 g/m*3 0 C 0 km/h
Sensor: Nr:Datum:Temp:Abs-Feuchte:Windchill:Wind:
Aussen-T/F 501 05-12-2004 04:11:01 0.1 C 4.05 g/m*3 0.1 C 0 km/h
502 05-12-2004 04:23:02 0.1 C 4.05 g/m*3 0.1 C 0 km/h
503 05-12-2004 04:35:02 -0.1 C 3.99 g/m*3 -0.1 C 0 km/h
504 05-12-2004 04:47:02 0 C 4.02 g/m*3 0 C 0 km/h
505 05-12-2004 04:59:02 0 C 4.02 g/m*3 0 C 0 km/h
506 05-12-2004 05:11:02 0 C 4.02 g/m*3 0 C 0 km/h
507 05-12-2004 05:23:02 -0.1 C 3.99 g/m*3 -0.1 C 0 km/h
508 05-12-2004 05:35:02 -0.2 C 3.97 g/m*3 -0.2 C 0 km/h
509 05-12-2004 05:47:02 -0.2 C 3.92 g/m*3 -0.2 C 0 km/h
510 05-12-2004 05:59:02 -0.3 C 3.89 g/m*3 -0.3 C 0 km/h
511 05-12-2004 06:11:02 -0.5 C 3.79 g/m*3 -0.5 C 0 km/h
512 05-12-2004 06:23:02 -0.5 C 3.79 g/m*3 -0.5 C 0 km/h
513 05-12-2004 06:35:01 -0.6 C 3.76 g/m*3 -0.6 C 0 km/h
514 05-12-2004 06:47:01 -0.6 C 3.76 g/m*3 -0.6 C 0 km/h
515 05-12-2004 06:59:01 -0.6 C 3.76 g/m*3 -0.6 C 0 km/h
516 05-12-2004 07:11:02 -0.7 C 3.74 g/m*3 -0.7 C 0 km/h
517 05-12-2004 07:23:02 -0.7 C 3.78 g/m*3 -0.7 C 0 km/h
518 05-12-2004 07:35:01 -0.7 C 3.78 g/m*3 -0.7 C 0 km/h
519 05-12-2004 07:47:01 -0.5 C 3.84 g/m*3 -0.5 C 0 km/h
520 05-12-2004 07:59:01 -0.6 C 3.81 g/m*3 -0.6 C 0 km/h
521 05-12-2004 08:11:01 -0.7 C 3.78 g/m*3 -0.7 C 0 km/h
522 05-12-2004 08:23:01 -0.9 C 3.73 g/m*3 -0.9 C 0 km/h
523 05-12-2004 08:35:02 -0.9 C 3.78 g/m*3 -0.9 C 0 km/h
524 05-12-2004 08:47:02 -0.9 C 3.73 g/m*3 -0.9 C 0 km/h
525 05-12-2004 08:59:02 -0.9 C 3.73 g/m*3 -0.9 C 0 km/h
Sensor: Nr:Datum:Temp:Abs-Feuchte:Windchill:Wind:
Aussen-T/F 526 05-12-2004 09:11:02 -0.9 C 3.73 g/m*3 -0.9 C 0 km/h
527 05-12-2004 09:23:02 -0.9 C 3.73 g/m*3 -0.9 C 0 km/h
528 05-12-2004 09:35:02 -0.7 C 3.78 g/m*3 -0.7 C 0 km/h
529 05-12-2004 09:47:02 -0.5 C 3.79 g/m*3 -0.5 C 0 km/h
530 05-12-2004 09:59:02 -0.4 C 3.77 g/m*3 -0.4 C 0 km/h
531 05-12-2004 10:11:03 -0.3 C 3.8 g/m*3 -0.3 C 0 km/h
532 05-12-2004 10:23:02 -0.5 C 3.74 g/m*3 -0.5 C 0 km/h
533 05-12-2004 10:35:02 -0.2 C 3.87 g/m*3 -0.2 C 0 km/h
534 05-12-2004 10:47:01 0.2 C 3.88 g/m*3 0.2 C 0 km/h
535 05-12-2004 10:59:01 0.4 C 3.88 g/m*3 0.4 C 0 km/h
536 05-12-2004 11:11:01 0.8 C 3.99 g/m*3 0.8 C 0 km/h
537 05-12-2004 11:23:01 0.8 C 3.89 g/m*3 0.8 C 0 km/h
538 05-12-2004 11:35:02 1 C 3.89 g/m*3 1 C 0 km/h
539 05-12-2004 11:47:01 1.2 C 3.89 g/m*3 1.2 C 0 km/h
540 05-12-2004 11:59:01 1.4 C 3.95 g/m*3 1.4 C 0 km/h
541 05-12-2004 12:11:02 1.5 C 3.92 g/m*3 1.5 C 0 km/h
542 05-12-2004 12:23:02 1.4 C 3.89 g/m*3 1.4 C 0 km/h
543 05-12-2004 12:35:02 1.6 C 3.95 g/m*3 1.6 C 0 km/h
544 05-12-2004 12:47:02 1.8 C 4 g/m*3 1.8 C 0 km/h
545 05-12-2004 12:59:02 2.2 C 4 g/m*3 2.2 C 0 km/h
546 05-12-2004 13:11:02 2.4 C 4.05 g/m*3 2.4 C 0 km/h
547 05-12-2004 13:23:02 2.3 C 4.03 g/m*3 2.3 C 0 km/h
548 05-12-2004 13:35:02 2.5 C 4.08 g/m*3 2.5 C 0 km/h
549 05-12-2004 13:47:01 2.7 C 4.14 g/m*3 2.7 C 0 km/h
550 05-12-2004 13:59:01 2.5 C 4.14 g/m*3 2.5 C 0 km/h
Sensor: Nr:Datum:Temp:Abs-Feuchte:Windchill:Wind:
Aussen-T/F 551 05-12-2004 14:11:02 2.6 C 4.17 g/m*3 2.6 C 0 km/h
552 05-12-2004 14:23:02 2.4 C 4.17 g/m*3 2.4 C 0 km/h
553 05-12-2004 14:35:01 2.5 C 4.2 g/m*3 2.5 C 0 km/h
554 05-12-2004 14:47:01 2.6 C 4.22 g/m*3 2.6 C 0 km/h
555 05-12-2004 14:59:01 2.6 C 4.22 g/m*3 2.6 C 0 km/h
556 05-12-2004 15:11:02 2.7 C 4.31 g/m*3 2.7 C 0 km/h
557 05-12-2004 15:23:02 2.7 C 4.31 g/m*3 2.7 C 0 km/h
558 05-12-2004 15:35:02 2.7 C 4.37 g/m*3 2.7 C 0 km/h
559 05-12-2004 15:47:02 2.7 C 4.37 g/m*3 2.7 C 0 km/h
560 05-12-2004 15:59:02 2.7 C 4.37 g/m*3 2.7 C 0 km/h
561 05-12-2004 16:11:02 2.6 C 4.4 g/m*3 2.6 C 0 km/h
562 05-12-2004 16:23:02 2.6 C 4.4 g/m*3 2.6 C 0 km/h
563 05-12-2004 16:35:02 2.6 C 4.4 g/m*3 2.6 C 0 km/h
564 05-12-2004 16:47:02 2.6 C 4.34 g/m*3 2.6 C 0 km/h
565 05-12-2004 16:59:02 2.6 C 4.4 g/m*3 2.6 C 0 km/h
566 05-12-2004 17:11:02 2.7 C 4.43 g/m*3 2.7 C 0 km/h
567 05-12-2004 17:23:02 2.6 C 4.46 g/m*3 2.6 C 0 km/h
568 05-12-2004 17:35:03 2.6 C 4.46 g/m*3 2.6 C 0 km/h
569 05-12-2004 17:47:02 2.6 C 4.46 g/m*3 2.6 C 0 km/h
570 05-12-2004 17:59:02 2.6 C 4.46 g/m*3 2.6 C 0 km/h
571 05-12-2004 18:11:02 2.6 C 4.46 g/m*3 2.6 C 0 km/h
572 05-12-2004 18:23:02 2.6 C 4.46 g/m*3 2.6 C 0 km/h
573 05-12-2004 18:35:02 2.5 C 4.37 g/m*3 2.5 C 0 km/h
574 05-12-2004 18:47:01 2.5 C 4.37 g/m*3 2.5 C 0 km/h
575 05-12-2004 18:59:01 2.5 C 4.43 g/m*3 2.5 C 0 km/h
Sensor: Nr:Datum:Temp:Abs-Feuchte:Windchill:Wind:
Aussen-T/F 576 05-12-2004 19:11:01 2.5 C 4.43 g/m*3 2.5 C 0 km/h
577 05-12-2004 19:23:01 2.5 C 4.48 g/m*3 2.5 C 0 km/h
578 05-12-2004 19:35:01 2.5 C 4.48 g/m*3 2.5 C 0 km/h
579 05-12-2004 19:47:01 2.6 C 4.46 g/m*3 2.6 C 0 km/h
580 05-12-2004 19:59:01 2.6 C 4.51 g/m*3 2.6 C 0 km/h
581 05-12-2004 20:11:02 2.4 C 4.51 g/m*3 2.4 C 0 km/h
582 05-12-2004 20:23:02 2.4 C 4.57 g/m*3 2.4 C 0 km/h
583 05-12-2004 20:35:02 2.5 C 4.6 g/m*3 2.5 C 0 km/h
584 05-12-2004 20:47:02 2.6 C 4.57 g/m*3 2.6 C 0 km/h
585 05-12-2004 20:59:02 2.6 C 4.57 g/m*3 2.6 C 0 km/h
586 05-12-2004 21:11:03 2.6 C 4.57 g/m*3 2.6 C 0 km/h
587 05-12-2004 21:23:03 2.6 C 4.57 g/m*3 2.6 C 0 km/h
588 05-12-2004 21:35:02 2.6 C 4.63 g/m*3 2.6 C 0 km/h
589 05-12-2004 21:47:01 2.7 C 4.66 g/m*3 2.7 C 0 km/h
590 05-12-2004 21:59:01 2.7 C 4.66 g/m*3 2.7 C 0 km/h
591 05-12-2004 22:11:02 2.8 C 4.69 g/m*3 2.8 C 0 km/h
592 05-12-2004 22:23:02 2.8 C 4.69 g/m*3 2.8 C 0 km/h
593 05-12-2004 22:35:02 2.9 C 4.67 g/m*3 2.9 C 0 km/h
594 05-12-2004 22:47:02 2.9 C 4.67 g/m*3 2.9 C 0 km/h
595 05-12-2004 22:59:02 3 C 4.7 g/m*3 3 C 0 km/h
596 05-12-2004 23:11:02 3 C 4.7 g/m*3 3 C 0 km/h
597 05-12-2004 23:23:03 3.1 C 4.73 g/m*3 3.1 C 0 km/h
598 05-12-2004 23:35:02 3.1 C 4.73 g/m*3 3.1 C 0 km/h
599 05-12-2004 23:47:01 3.1 C 4.67 g/m*3 3.1 C 0 km/h
600 05-12-2004 23:59:01 3.1 C 4.67 g/m*3 3.1 C 0 km/h
Sensor: Nr:Datum:Temp:Abs-Feuchte:Windchill:Wind:
Aussen-T/F 601 06-12-2004 00:11:02 3.2 C 4.76 g/m*3 3.2 C 0 km/h
602 06-12-2004 00:23:03 3.2 C 4.76 g/m*3 3.2 C 0 km/h
603 06-12-2004 00:35:02 3.3 C 4.79 g/m*3 3.3 C 0 km/h
604 06-12-2004 00:47:02 3.3 C 4.79 g/m*3 3.3 C 0 km/h
605 06-12-2004 00:59:02 3.3 C 4.79 g/m*3 3.3 C 0 km/h
606 06-12-2004 01:11:02 3.3 C 4.79 g/m*3 3.3 C 0 km/h
607 06-12-2004 01:23:02 3.4 C 4.83 g/m*3 3.4 C 0 km/h
608 06-12-2004 01:35:02 3.3 C 4.79 g/m*3 3.3 C 0 km/h
609 06-12-2004 01:47:02 3.3 C 4.85 g/m*3 3.3 C 0 km/h
610 06-12-2004 01:59:02 3.3 C 4.85 g/m*3 3.3 C 0 km/h
611 06-12-2004 02:11:03 3.3 C 4.85 g/m*3 3.3 C 0 km/h
612 06-12-2004 02:23:03 3.3 C 4.85 g/m*3 3.3 C 0 km/h
613 06-12-2004 02:35:02 3.3 C 4.91 g/m*3 3.3 C 0 km/h
614 06-12-2004 02:48:03 3.2 C 4.94 g/m*3 3.2 C 0 km/h
615 06-12-2004 03:00:03 3.3 C 4.97 g/m*3 3.3 C 0 km/h
616 06-12-2004 03:12:03 3.3 C 4.97 g/m*3 3.3 C 0 km/h
617 06-12-2004 03:24:04 3.4 C 5.01 g/m*3 3.4 C 0 km/h
618 06-12-2004 03:36:02 3.4 C 5.01 g/m*3 3.4 C 0 km/h
619 06-12-2004 03:48:02 3.4 C 5.01 g/m*3 3.4 C 0 km/h
620 06-12-2004 04:00:02 3.5 C 5.04 g/m*3 3.5 C 0 km/h
621 06-12-2004 04:12:01 3.5 C 5.04 g/m*3 3.5 C 0 km/h
622 06-12-2004 04:24:02 3.4 C 5.07 g/m*3 3.4 C 0 km/h
623 06-12-2004 04:36:01 3.4 C 5.07 g/m*3 3.4 C 0 km/h
624 06-12-2004 04:48:03 3.4 C 5.07 g/m*3 3.4 C 0 km/h
625 06-12-2004 05:00:03 3.4 C 5.07 g/m*3 3.4 C 0 km/h
Sensor: Nr:Datum:Temp:Abs-Feuchte:Windchill:Wind:
Aussen-T/F 626 06-12-2004 05:12:02 3.4 C 5.07 g/m*3 3.4 C 0 km/h
627 06-12-2004 05:24:02 3.4 C 5.07 g/m*3 3.4 C 0 km/h
628 06-12-2004 05:36:02 3.4 C 5.07 g/m*3 3.4 C 0 km/h
629 06-12-2004 05:48:02 3.4 C 5.07 g/m*3 3.4 C 0 km/h
630 06-12-2004 06:00:02 3.4 C 5.01 g/m*3 3.4 C 0 km/h
631 06-12-2004 06:12:02 3.3 C 4.97 g/m*3 3.3 C 0 km/h
632 06-12-2004 06:24:02 3.4 C 5.01 g/m*3 3.4 C 0 km/h
633 06-12-2004 06:36:02 3.3 C 5.04 g/m*3 3.3 C 0 km/h
634 06-12-2004 06:48:02 3.3 C 5.04 g/m*3 3.3 C 0 km/h
635 06-12-2004 07:00:02 3.3 C 5.04 g/m*3 3.3 C 0 km/h
636 06-12-2004 07:12:03 3.2 C 5 g/m*3 3.2 C 0 km/h
637 06-12-2004 07:24:03 3.2 C 5 g/m*3 3.2 C 0 km/h
638 06-12-2004 07:36:02 3.2 C 5 g/m*3 3.2 C 0 km/h
639 06-12-2004 07:48:02 3.2 C 5.06 g/m*3 3.2 C 0 km/h
640 06-12-2004 08:00:03 3.2 C 5.06 g/m*3 3.2 C 0 km/h
641 06-12-2004 08:12:01 3.3 C 5.1 g/m*3 3.3 C 0 km/h
642 06-12-2004 08:24:01 3.4 C 5.13 g/m*3 3.4 C 0 km/h
643 06-12-2004 08:36:02 3.4 C 5.13 g/m*3 3.4 C 0 km/h
644 06-12-2004 08:48:02 3.5 C 5.16 g/m*3 3.5 C 0 km/h
645 06-12-2004 09:00:02 3.5 C 5.16 g/m*3 3.5 C 0 km/h
646 06-12-2004 09:12:02 3.6 C 5.14 g/m*3 3.6 C 0 km/h
647 06-12-2004 09:24:02 3.7 C 5.17 g/m*3 3.7 C 0 km/h
648 06-12-2004 09:36:02 3.8 C 5.21 g/m*3 3.8 C 0 km/h
649 06-12-2004 09:48:01 3.8 C 5.14 g/m*3 3.8 C 0 km/h
650 06-12-2004 10:00:01 4.1 C 5.25 g/m*3 4.1 C 0 km/h
Sensor: Nr:Datum:Temp:Abs-Feuchte:Windchill:Wind:
Aussen-T/F 651 06-12-2004 10:12:02 4.3 C 5.25 g/m*3 4.3 C 0 km/h
652 06-12-2004 10:24:02 4.4 C 5.22 g/m*3 4.4 C 0 km/h
653 06-12-2004 10:36:01 4.5 C 5.19 g/m*3 4.5 C 0 km/h
654 06-12-2004 10:48:01 4.6 C 5.23 g/m*3 4.6 C 0 km/h
655 06-12-2004 11:00:01 4.7 C 5.26 g/m*3 4.7 C 0 km/h
656 06-12-2004 11:12:01 4.8 C 5.3 g/m*3 4.8 C 0 km/h
657 06-12-2004 11:24:01 5.1 C 5.34 g/m*3 5.1 C 0 km/h
658 06-12-2004 11:36:02 5.1 C 5.27 g/m*3 5.1 C 0 km/h
659 06-12-2004 11:48:02 5.3 C 5.34 g/m*3 5.3 C 0 km/h
660 06-12-2004 12:00:02 5.5 C 5.41 g/m*3 5.5 C 0 km/h
661 06-12-2004 12:12:02 5.6 C 5.37 g/m*3 5.6 C 0 km/h
662 06-12-2004 12:24:02 5.8 C 5.37 g/m*3 5.8 C 0 km/h
663 06-12-2004 12:36:02 6 C 5.3 g/m*3 6 C 0 km/h
664 06-12-2004 12:48:01 6 C 5.3 g/m*3 6 C 0 km/h
665 06-12-2004 13:00:01 6 C 5.3 g/m*3 6 C 0 km/h
666 06-12-2004 13:12:02 6.2 C 5.37 g/m*3 6.2 C 0 km/h
667 06-12-2004 13:24:01 6.4 C 5.44 g/m*3 6.4 C 0 km/h
668 06-12-2004 13:36:01 6.6 C 5.51 g/m*3 6.6 C 0 km/h
669 06-12-2004 13:48:01 6.7 C 5.47 g/m*3 6.7 C 0 km/h
670 06-12-2004 14:00:01 6.8 C 5.58 g/m*3 6.8 C 0 km/h
671 06-12-2004 14:12:02 6.7 C 5.55 g/m*3 6.7 C 0 km/h
672 06-12-2004 14:24:02 6.7 C 5.55 g/m*3 6.7 C 0 km/h
673 06-12-2004 14:36:01 6.6 C 5.51 g/m*3 6.6 C 0 km/h
674 06-12-2004 14:48:01 6.6 C 5.51 g/m*3 6.6 C 0 km/h
675 06-12-2004 15:00:01 6.7 C 5.62 g/m*3 6.7 C 0 km/h
Sensor: Nr:Datum:Temp:Abs-Feuchte:Windchill:Wind:
Aussen-T/F 676 06-12-2004 15:12:02 6.7 C 5.62 g/m*3 6.7 C 0 km/h
677 06-12-2004 15:24:02 6.7 C 5.62 g/m*3 6.7 C 0 km/h
678 06-12-2004 15:36:01 6.7 C 5.62 g/m*3 6.7 C 0 km/h
679 06-12-2004 15:48:01 6.7 C 5.62 g/m*3 6.7 C 0 km/h
680 06-12-2004 16:00:01 6.6 C 5.66 g/m*3 6.6 C 0 km/h
681 06-12-2004 16:12:02 6.5 C 5.62 g/m*3 6.5 C 0 km/h
682 06-12-2004 16:24:02 6.4 C 5.66 g/m*3 6.4 C 0 km/h
683 06-12-2004 16:36:02 6.2 C 5.66 g/m*3 6.2 C 0 km/h
684 06-12-2004 16:48:01 6.1 C 5.7 g/m*3 6.1 C 0 km/h
685 06-12-2004 17:00:01 6 C 5.73 g/m*3 6 C 0 km/h
686 06-12-2004 17:12:02 5.9 C 5.77 g/m*3 5.9 C 0 km/h
687 06-12-2004 17:24:02 5.8 C 5.73 g/m*3 5.8 C 0 km/h
688 06-12-2004 17:36:01 5.7 C 5.76 g/m*3 5.7 C 0 km/h
689 06-12-2004 17:48:01 5.7 C 5.76 g/m*3 5.7 C 0 km/h
690 06-12-2004 18:00:01 5.7 C 5.84 g/m*3 5.7 C 0 km/h
691 06-12-2004 18:12:02 5.6 C 5.8 g/m*3 5.6 C 0 km/h
692 06-12-2004 18:24:02 5.6 C 5.8 g/m*3 5.6 C 0 km/h
693 06-12-2004 18:36:02 5.5 C 5.76 g/m*3 5.5 C 0 km/h
694 06-12-2004 18:48:02 5.3 C 5.68 g/m*3 5.3 C 0 km/h
695 06-12-2004 19:00:02 5.2 C 5.65 g/m*3 5.2 C 0 km/h
696 06-12-2004 19:12:02 5.1 C 5.68 g/m*3 5.1 C 0 km/h
697 06-12-2004 19:24:02 5 C 5.57 g/m*3 5 C 0 km/h
698 06-12-2004 19:36:02 4.8 C 5.57 g/m*3 4.8 C 0 km/h
699 06-12-2004 19:48:01 4.6 C 5.56 g/m*3 4.6 C 0 km/h
700 06-12-2004 20:00:01 4.5 C 5.52 g/m*3 4.5 C 0 km/h
Sensor: Nr:Datum:Temp:Abs-Feuchte:Windchill:Wind:
Aussen-T/F 701 06-12-2004 20:12:01 4.4 C 5.48 g/m*3 4.4 C 0 km/h
702 06-12-2004 20:24:01 4.5 C 5.59 g/m*3 4.5 C 0 km/h
703 06-12-2004 20:36:01 4.4 C 5.55 g/m*3 4.4 C 0 km/h
704 06-12-2004 20:48:01 4.5 C 5.59 g/m*3 4.5 C 0 km/h
705 06-12-2004 21:00:01 4.5 C 5.59 g/m*3 4.5 C 0 km/h
706 06-12-2004 21:12:02 4.5 C 5.59 g/m*3 4.5 C 0 km/h
707 06-12-2004 21:24:02 4.5 C 5.59 g/m*3 4.5 C 0 km/h
708 06-12-2004 21:36:02 4.6 C 5.62 g/m*3 4.6 C 0 km/h
709 06-12-2004 21:48:02 4.5 C 5.59 g/m*3 4.5 C 0 km/h
710 06-12-2004 22:00:02 4.6 C 5.62 g/m*3 4.6 C 0 km/h
711 06-12-2004 22:12:02 4.4 C 5.55 g/m*3 4.4 C 0 km/h
712 06-12-2004 22:24:02 4.3 C 5.51 g/m*3 4.3 C 0 km/h
713 06-12-2004 22:36:02 4.3 C 5.51 g/m*3 4.3 C 0 km/h
714 06-12-2004 22:48:01 4.3 C 5.51 g/m*3 4.3 C 0 km/h
715 06-12-2004 23:00:01 4.2 C 5.48 g/m*3 4.2 C 0 km/h
716 06-12-2004 23:12:02 4.3 C 5.51 g/m*3 4.3 C 0 km/h
717 06-12-2004 23:24:02 4.3 C 5.51 g/m*3 4.3 C 0 km/h
718 06-12-2004 23:36:01 4.3 C 5.58 g/m*3 4.3 C 0 km/h
719 06-12-2004 23:48:01 4.2 C 5.54 g/m*3 4.2 C 0 km/h

Legende:
   Min
   Max


Maximal/Minimal-Werte vom 01.12.2004 - 06.12.2004

Sensor Min Max Avg
Temp
(Aussen-T/F)
-0.9 °C
05-12-2004  08:23:01
7.3 °C
01-12-2004  12:32:01
3.31 °C
Abs-Feuchte
(Aussen-T/F)
3.73 g/m*3
05-12-2004  08:23:01
5.84 g/m*3
06-12-2004  18:00:01
4.88 g/m*3
Windchill
(Aussen-T/F)
-0.9 C
05-12-2004  08:23:01
7.3 C
01-12-2004  12:32:01
3.3 C

Die Daten stammen von einer Davis Vantage Pro 2 Wetter-Station und werden unter Linux mit der Software wview2wettercgi und aufbereitet. Alle Angaben erfolgen ohne Gewähr für ihre Vollständigkeit oder Richtigkeit.
Kontakt: Rainer Krienke krienke@uni-koblenz.de . Meine Webseiten an der Uni Koblenz oder privat.
Version: $Revision: 0.78 $